Kirensk, Russia
Current Conditions -  °F | °C
As of 3:00 PM on Monday 24 Nov 2014 (Local Time) from UIBB Reporting Station
Overcast Overcast  
Wind Chill: 18°   Ceiling: 20000
Heat Index: 27°   Visibility: 6mi
Dew Point:   Wind: 9mph
Humidity: 47%   Direction: 200°SSW
Pressure: 29.32"   Gusts: NA
Location:  57.79°N, 108.11°E
Report Text: UIBB 240700Z 20004MPS 9999 SCT100 OVC200 M03/M13 Q0993 NOSIGRMK QFE702/0937 30420540
Loading
Personal Weather Stations






























Interactive Weather Map New forecast layout! Learn more

10-Day Weather Forecast

Advertisements
Track Severe Weather on mobile